sensor_id;sensor_type;location;lat;lon;timestamp;pressure;altitude;pressure_sealevel;temperature;humidity
31082;BME280;17737;52.586;13.284;2023-04-23T00:00:08;100233.47;;;15.82;45.46
31082;BME280;17737;52.586;13.284;2023-04-23T00:02:39;100237.66;;;15.84;45.43
31082;BME280;17737;52.586;13.284;2023-04-23T00:05:12;100227.66;;;15.78;45.37
31082;BME280;17737;52.586;13.284;2023-04-23T00:07:42;100225.09;;;15.90;45.31
31082;BME280;17737;52.586;13.284;2023-04-23T00:10:35;100232.03;;;15.79;45.83
31082;BME280;17737;52.586;13.284;2023-04-23T00:13:47;100222.63;;;15.75;46.12
31082;BME280;17737;52.586;13.284;2023-04-23T00:16:19;100225.13;;;15.77;46.05
31082;BME280;17737;52.586;13.284;2023-04-23T00:18:50;100225.56;;;15.74;46.34
31082;BME280;17737;52.586;13.284;2023-04-23T00:21:18;100212.19;;;15.72;46.57
31082;BME280;17737;52.586;13.284;2023-04-23T00:23:46;100209.69;;;15.77;46.20
31082;BME280;17737;52.586;13.284;2023-04-23T00:26:14;100216.78;;;15.78;46.35
31082;BME280;17737;52.586;13.284;2023-04-23T00:28:49;100212.41;;;15.77;46.49
31082;BME280;17737;52.586;13.284;2023-04-23T00:31:18;100209.50;;;15.72;46.60
31082;BME280;17737;52.586;13.284;2023-04-23T00:33:54;100207.81;;;15.78;46.35
31082;BME280;17737;52.586;13.284;2023-04-23T00:36:27;100213.84;;;15.80;46.87
31082;BME280;17737;52.586;13.284;2023-04-23T00:39:10;100200.91;;;15.75;46.47
31082;BME280;17737;52.586;13.284;2023-04-23T00:41:39;100215.06;;;15.84;46.60
31082;BME280;17737;52.586;13.284;2023-04-23T00:44:14;100212.16;;;15.79;46.65
31082;BME280;17737;52.586;13.284;2023-04-23T00:46:45;100200.94;;;15.69;46.96
31082;BME280;17737;52.586;13.284;2023-04-23T00:49:14;100195.03;;;15.85;46.57
31082;BME280;17737;52.586;13.284;2023-04-23T00:51:42;100190.66;;;15.77;46.64
31082;BME280;17737;52.586;13.284;2023-04-23T00:54:10;100191.75;;;15.70;47.54
31082;BME280;17737;52.586;13.284;2023-04-23T00:56:39;100192.59;;;15.64;47.70
31082;BME280;17737;52.586;13.284;2023-04-23T00:59:07;100192.75;;;15.75;46.84
31082;BME280;17737;52.586;13.284;2023-04-23T01:01:35;100187.81;;;15.59;47.71
31082;BME280;17737;52.586;13.284;2023-04-23T01:04:27;100196.19;;;15.57;47.45
31082;BME280;17737;52.586;13.284;2023-04-23T01:07:07;100195.78;;;15.47;47.34
31082;BME280;17737;52.586;13.284;2023-04-23T01:09:59;100190.56;;;15.52;47.07
31082;BME280;17737;52.586;13.284;2023-04-23T01:12:34;100192.88;;;15.49;47.58
31082;BME280;17737;52.586;13.284;2023-04-23T01:15:03;100186.81;;;15.47;48.42
31082;BME280;17737;52.586;13.284;2023-04-23T01:17:33;100176.16;;;15.45;48.35
31082;BME280;17737;52.586;13.284;2023-04-23T01:20:02;100177.84;;;15.40;48.78
31082;BME280;17737;52.586;13.284;2023-04-23T01:22:34;100184.75;;;15.42;48.72
31082;BME280;17737;52.586;13.284;2023-04-23T01:25:07;100180.75;;;15.45;48.80
31082;BME280;17737;52.586;13.284;2023-04-23T01:27:39;100187.19;;;15.37;50.89
31082;BME280;17737;52.586;13.284;2023-04-23T01:30:11;100180.97;;;15.30;52.15
31082;BME280;17737;52.586;13.284;2023-04-23T01:32:45;100188.09;;;15.18;55.34
31082;BME280;17737;52.586;13.284;2023-04-23T01:35:31;100189.78;;;14.93;56.47
31082;BME280;17737;52.586;13.284;2023-04-23T01:38:09;100194.59;;;14.65;58.97
31082;BME280;17737;52.586;13.284;2023-04-23T01:40:41;100190.19;;;14.38;59.67
31082;BME280;17737;52.586;13.284;2023-04-23T01:43:26;100194.69;;;14.18;65.14
31082;BME280;17737;52.586;13.284;2023-04-23T01:45:55;100185.09;;;14.15;61.19
31082;BME280;17737;52.586;13.284;2023-04-23T01:48:31;100190.06;;;14.05;62.38
31082;BME280;17737;52.586;13.284;2023-04-23T01:51:05;100188.78;;;13.95;64.40
31082;BME280;17737;52.586;13.284;2023-04-23T01:53:35;100186.91;;;13.89;65.15
31082;BME280;17737;52.586;13.284;2023-04-23T01:56:07;100187.25;;;13.73;66.07
31082;BME280;17737;52.586;13.284;2023-04-23T01:59:08;100188.28;;;13.65;68.70
31082;BME280;17737;52.586;13.284;2023-04-23T02:01:40;100183.22;;;13.56;69.31
31082;BME280;17737;52.586;13.284;2023-04-23T02:04:13;100186.28;;;13.46;71.34
31082;BME280;17737;52.586;13.284;2023-04-23T02:06:46;100182.94;;;13.44;72.34
31082;BME280;17737;52.586;13.284;2023-04-23T02:09:17;100190.22;;;13.44;73.94
31082;BME280;17737;52.586;13.284;2023-04-23T02:11:46;100189.13;;;13.32;76.13
31082;BME280;17737;52.586;13.284;2023-04-23T02:14:14;100183.56;;;13.40;75.70
31082;BME280;17737;52.586;13.284;2023-04-23T02:16:43;100177.63;;;13.23;76.95
31082;BME280;17737;52.586;13.284;2023-04-23T02:19:11;100180.03;;;13.11;79.42
31082;BME280;17737;52.586;13.284;2023-04-23T02:21:41;100177.09;;;13.06;77.89
31082;BME280;17737;52.586;13.284;2023-04-23T02:24:09;100183.16;;;13.08;79.39
31082;BME280;17737;52.586;13.284;2023-04-23T02:26:38;100177.09;;;13.06;80.69
31082;BME280;17737;52.586;13.284;2023-04-23T02:29:06;100176.88;;;13.36;77.33
31082;BME280;17737;52.586;13.284;2023-04-23T02:31:34;100178.53;;;13.37;77.21
31082;BME280;17737;52.586;13.284;2023-04-23T02:34:02;100182.50;;;13.41;77.43
31082;BME280;17737;52.586;13.284;2023-04-23T02:36:30;100180.41;;;13.36;77.94
31082;BME280;17737;52.586;13.284;2023-04-23T02:38:58;100185.41;;;13.39;78.41
31082;BME280;17737;52.586;13.284;2023-04-23T02:41:26;100180.63;;;13.35;77.88
31082;BME280;17737;52.586;13.284;2023-04-23T02:43:56;100174.19;;;13.42;77.81
31082;BME280;17737;52.586;13.284;2023-04-23T02:46:24;100178.53;;;13.37;78.89
31082;BME280;17737;52.586;13.284;2023-04-23T02:48:52;100169.59;;;13.36;81.80
31082;BME280;17737;52.586;13.284;2023-04-23T02:51:20;100170.91;;;13.47;78.11
31082;BME280;17737;52.586;13.284;2023-04-23T02:53:48;100174.38;;;13.41;78.08
31082;BME280;17737;52.586;13.284;2023-04-23T02:56:16;100171.44;;;13.36;79.70
31082;BME280;17737;52.586;13.284;2023-04-23T02:58:45;100174.16;;;13.36;79.55
31082;BME280;17737;52.586;13.284;2023-04-23T03:01:14;100174.41;;;13.47;79.18
31082;BME280;17737;52.586;13.284;2023-04-23T03:03:43;100169.69;;;13.62;77.49
31082;BME280;17737;52.586;13.284;2023-04-23T03:06:11;100169.44;;;13.51;78.24
31082;BME280;17737;52.586;13.284;2023-04-23T03:08:39;100165.75;;;13.58;77.71
31082;BME280;17737;52.586;13.284;2023-04-23T03:11:07;100166.53;;;13.52;77.73
31082;BME280;17737;52.586;13.284;2023-04-23T03:13:35;100169.00;;;13.47;78.39
31082;BME280;17737;52.586;13.284;2023-04-23T03:16:03;100162.59;;;13.55;78.38
31082;BME280;17737;52.586;13.284;2023-04-23T03:18:33;100162.84;;;13.60;77.97
31082;BME280;17737;52.586;13.284;2023-04-23T03:21:01;100166.09;;;13.49;79.75
31082;BME280;17737;52.586;13.284;2023-04-23T03:23:29;100164.44;;;13.48;79.50
31082;BME280;17737;52.586;13.284;2023-04-23T03:25:57;100157.31;;;13.40;80.04
31082;BME280;17737;52.586;13.284;2023-04-23T03:28:25;100154.38;;;13.35;79.99
31082;BME280;17737;52.586;13.284;2023-04-23T03:30:53;100153.78;;;13.40;80.67
31082;BME280;17737;52.586;13.284;2023-04-23T03:33:21;100153.38;;;13.43;79.83
31082;BME280;17737;52.586;13.284;2023-04-23T03:35:50;100150.69;;;13.43;80.12
31082;BME280;17737;52.586;13.284;2023-04-23T03:38:18;100145.91;;;13.45;79.49
31082;BME280;17737;52.586;13.284;2023-04-23T03:40:46;100149.25;;;13.47;79.59
31082;BME280;17737;52.586;13.284;2023-04-23T03:43:14;100144.13;;;13.65;78.40
31082;BME280;17737;52.586;13.284;2023-04-23T03:45:42;100143.50;;;13.76;78.00
31082;BME280;17737;52.586;13.284;2023-04-23T03:48:10;100139.16;;;13.81;76.54
31082;BME280;17737;52.586;13.284;2023-04-23T03:50:38;100145.22;;;13.83;76.73
31082;BME280;17737;52.586;13.284;2023-04-23T03:53:08;100143.13;;;13.79;77.02
31082;BME280;17737;52.586;13.284;2023-04-23T03:55:36;100145.63;;;13.74;78.04
31082;BME280;17737;52.586;13.284;2023-04-23T03:58:04;100149.56;;;13.84;76.46
31082;BME280;17737;52.586;13.284;2023-04-23T04:00:34;100145.88;;;13.92;75.85
31082;BME280;17737;52.586;13.284;2023-04-23T04:03:02;100141.50;;;13.91;76.13
31082;BME280;17737;52.586;13.284;2023-04-23T04:05:30;100143.16;;;13.92;76.54
31082;BME280;17737;52.586;13.284;2023-04-23T04:07:58;100150.66;;;13.90;77.07
31082;BME280;17737;52.586;13.284;2023-04-23T04:10:28;100153.34;;;13.90;76.97
31082;BME280;17737;52.586;13.284;2023-04-23T04:12:56;100151.28;;;13.92;76.90
31082;BME280;17737;52.586;13.284;2023-04-23T04:15:24;100147.94;;;13.90;78.12
31082;BME280;17737;52.586;13.284;2023-04-23T04:17:52;100149.19;;;13.87;78.00
31082;BME280;17737;52.586;13.284;2023-04-23T04:20:20;100152.13;;;13.92;77.11
31082;BME280;17737;52.586;13.284;2023-04-23T04:22:48;100146.28;;;13.89;78.11
31082;BME280;17737;52.586;13.284;2023-04-23T04:25:16;100142.69;;;13.75;79.07
31082;BME280;17737;52.586;13.284;2023-04-23T04:27:45;100136.97;;;13.51;80.35
31082;BME280;17737;52.586;13.284;2023-04-23T04:30:13;100146.25;;;13.35;81.99
31082;BME280;17737;52.586;13.284;2023-04-23T04:32:42;100143.28;;;13.23;82.45
31082;BME280;17737;52.586;13.284;2023-04-23T04:35:11;100151.78;;;13.14;82.85
31082;BME280;17737;52.586;13.284;2023-04-23T04:37:39;100148.22;;;13.13;83.37
31082;BME280;17737;52.586;13.284;2023-04-23T04:40:10;100148.66;;;13.17;83.21
31082;BME280;17737;52.586;13.284;2023-04-23T04:42:40;100153.63;;;13.13;88.64
31082;BME280;17737;52.586;13.284;2023-04-23T04:45:10;100154.84;;;13.11;87.31
31082;BME280;17737;52.586;13.284;2023-04-23T04:47:38;100150.72;;;13.15;83.99
31082;BME280;17737;52.586;13.284;2023-04-23T04:50:07;100143.00;;;13.05;83.84
31082;BME280;17737;52.586;13.284;2023-04-23T04:52:36;100143.09;;;12.97;84.85
31082;BME280;17737;52.586;13.284;2023-04-23T04:55:05;100150.50;;;12.89;86.46
31082;BME280;17737;52.586;13.284;2023-04-23T04:57:33;100141.56;;;12.82;87.47
31082;BME280;17737;52.586;13.284;2023-04-23T05:00:19;100142.97;;;12.78;88.68
31082;BME280;17737;52.586;13.284;2023-04-23T05:02:49;100143.13;;;12.70;91.03
31082;BME280;17737;52.586;13.284;2023-04-23T05:05:18;100152.69;;;12.72;90.98
31082;BME280;17737;52.586;13.284;2023-04-23T05:07:46;100156.47;;;12.78;91.25
31082;BME280;17737;52.586;13.284;2023-04-23T05:10:15;100151.53;;;12.81;91.49
31082;BME280;17737;52.586;13.284;2023-04-23T05:12:43;100145.31;;;12.87;92.61
31082;BME280;17737;52.586;13.284;2023-04-23T05:15:12;100152.03;;;12.98;93.40
31082;BME280;17737;52.586;13.284;2023-04-23T05:17:42;100159.97;;;12.99;91.82
31082;BME280;17737;52.586;13.284;2023-04-23T05:20:10;100159.66;;;13.09;91.27
31082;BME280;17737;52.586;13.284;2023-04-23T05:22:39;100148.66;;;13.17;90.47
31082;BME280;17737;52.586;13.284;2023-04-23T05:25:09;100167.66;;;13.30;90.19
31082;BME280;17737;52.586;13.284;2023-04-23T05:27:38;100168.97;;;13.41;89.76
31082;BME280;17737;52.586;13.284;2023-04-23T05:30:08;100165.50;;;13.53;88.91
31082;BME280;17737;52.586;13.284;2023-04-23T05:32:37;100168.88;;;13.55;88.30
31082;BME280;17737;52.586;13.284;2023-04-23T05:35:08;100168.88;;;13.55;87.97
31082;BME280;17737;52.586;13.284;2023-04-23T05:37:36;100168.44;;;13.58;87.08
31082;BME280;17737;52.586;13.284;2023-04-23T05:40:05;100165.31;;;13.55;87.14
31082;BME280;17737;52.586;13.284;2023-04-23T05:42:34;100170.91;;;13.47;87.21
31082;BME280;17737;52.586;13.284;2023-04-23T05:45:03;100169.00;;;13.47;88.12
31082;BME280;17737;52.586;13.284;2023-04-23T05:47:34;100174.44;;;13.54;87.55
31082;BME280;17737;52.586;13.284;2023-04-23T05:50:04;100175.25;;;13.41;88.28
31082;BME280;17737;52.586;13.284;2023-04-23T05:52:34;100183.94;;;13.37;89.00
31082;BME280;17737;52.586;13.284;2023-04-23T05:55:03;100180.56;;;13.28;88.78
31082;BME280;17737;52.586;13.284;2023-04-23T05:57:32;100170.59;;;13.35;88.90
31082;BME280;17737;52.586;13.284;2023-04-23T06:00:00;100176.00;;;13.29;88.11
31082;BME280;17737;52.586;13.284;2023-04-23T06:02:28;100179.50;;;13.23;88.06
31082;BME280;17737;52.586;13.284;2023-04-23T06:04:56;100177.19;;;13.19;88.44
31082;BME280;17737;52.586;13.284;2023-04-23T06:07:25;100176.34;;;13.19;87.70
31082;BME280;17737;52.586;13.284;2023-04-23T06:09:54;100170.34;;;13.23;88.14
31082;BME280;17737;52.586;13.284;2023-04-23T06:12:22;100184.31;;;13.27;88.76
31082;BME280;17737;52.586;13.284;2023-04-23T06:14:51;100180.63;;;13.35;89.34
31082;BME280;17737;52.586;13.284;2023-04-23T06:17:20;100184.16;;;13.42;89.52
31082;BME280;17737;52.586;13.284;2023-04-23T06:19:48;100187.38;;;13.52;88.96
31082;BME280;17737;52.586;13.284;2023-04-23T06:22:16;100188.22;;;13.59;88.94
31082;BME280;17737;52.586;13.284;2023-04-23T06:24:44;100182.84;;;13.65;88.99
31082;BME280;17737;52.586;13.284;2023-04-23T06:27:13;100180.97;;;13.66;87.98
31082;BME280;17737;52.586;13.284;2023-04-23T06:29:41;100184.94;;;13.70;88.38
31082;BME280;17737;52.586;13.284;2023-04-23T06:32:10;100187.06;;;13.81;88.99
31082;BME280;17737;52.586;13.284;2023-04-23T06:34:38;100187.53;;;13.91;88.11
31082;BME280;17737;52.586;13.284;2023-04-23T06:37:25;100179.88;;;14.01;87.97
31082;BME280;17737;52.586;13.284;2023-04-23T06:39:55;100190.84;;;13.93;88.47
31082;BME280;17737;52.586;13.284;2023-04-23T06:42:25;100194.19;;;13.95;88.54
31082;BME280;17737;52.586;13.284;2023-04-23T06:44:53;100193.75;;;13.85;88.38
31082;BME280;17737;52.586;13.284;2023-04-23T06:47:21;100191.22;;;13.77;88.51
31082;BME280;17737;52.586;13.284;2023-04-23T06:49:49;100202.50;;;13.80;88.61
31082;BME280;17737;52.586;13.284;2023-04-23T06:52:17;100203.91;;;13.70;88.74
31082;BME280;17737;52.586;13.284;2023-04-23T06:54:45;100201.50;;;13.54;89.09
31082;BME280;17737;52.586;13.284;2023-04-23T06:57:13;100198.19;;;13.52;89.87
31082;BME280;17737;52.586;13.284;2023-04-23T06:59:43;100198.97;;;13.46;90.38
31082;BME280;17737;52.586;13.284;2023-04-23T07:02:11;100204.34;;;13.33;90.92
31082;BME280;17737;52.586;13.284;2023-04-23T07:04:39;100201.75;;;13.24;91.73
31082;BME280;17737;52.586;13.284;2023-04-23T07:07:07;100201.53;;;13.19;92.36
31082;BME280;17737;52.586;13.284;2023-04-23T07:09:35;100201.72;;;13.18;93.17
31082;BME280;17737;52.586;13.284;2023-04-23T07:12:04;100202.97;;;13.15;93.10
31082;BME280;17737;52.586;13.284;2023-04-23T07:14:32;100198.78;;;13.13;93.99
31082;BME280;17737;52.586;13.284;2023-04-23T07:17:01;100207.75;;;13.13;94.33
31082;BME280;17737;52.586;13.284;2023-04-23T07:19:29;100201.75;;;13.24;94.58
31082;BME280;17737;52.586;13.284;2023-04-23T07:21:57;100201.16;;;13.23;94.04
31082;BME280;17737;52.586;13.284;2023-04-23T07:24:28;100197.22;;;13.32;94.10
31082;BME280;17737;52.586;13.284;2023-04-23T07:27:00;100204.34;;;13.33;93.95
31082;BME280;17737;52.586;13.284;2023-04-23T07:29:29;100209.78;;;13.39;93.73
31082;BME280;17737;52.586;13.284;2023-04-23T07:31:57;100199.13;;;13.31;93.49
31082;BME280;17737;52.586;13.284;2023-04-23T07:34:27;100207.69;;;13.35;93.95
31082;BME280;17737;52.586;13.284;2023-04-23T07:36:55;100203.13;;;13.42;93.94
31082;BME280;17737;52.586;13.284;2023-04-23T07:39:23;100206.09;;;13.47;93.50
31082;BME280;17737;52.586;13.284;2023-04-23T07:41:53;100216.06;;;13.46;93.50
31082;BME280;17737;52.586;13.284;2023-04-23T07:44:22;100211.09;;;13.50;93.84
31082;BME280;17737;52.586;13.284;2023-04-23T07:46:50;100216.47;;;13.43;93.84
31082;BME280;17737;52.586;13.284;2023-04-23T07:49:18;100219.78;;;13.45;93.87
31082;BME280;17737;52.586;13.284;2023-04-23T07:51:48;100218.97;;;13.45;93.94
31082;BME280;17737;52.586;13.284;2023-04-23T07:54:16;100218.13;;;13.44;94.79
31082;BME280;17737;52.586;13.284;2023-04-23T07:56:44;100228.47;;;13.34;94.58
31082;BME280;17737;52.586;13.284;2023-04-23T07:59:12;100222.03;;;13.35;94.35
31082;BME280;17737;52.586;13.284;2023-04-23T08:01:40;100219.28;;;13.29;94.44
31082;BME280;17737;52.586;13.284;2023-04-23T08:04:10;100223.22;;;13.26;95.00
31082;BME280;17737;52.586;13.284;2023-04-23T08:06:39;100223.81;;;13.21;95.06
31082;BME280;17737;52.586;13.284;2023-04-23T08:09:11;100224.88;;;13.27;95.05
31082;BME280;17737;52.586;13.284;2023-04-23T08:11:40;100229.47;;;13.27;95.26
31082;BME280;17737;52.586;13.284;2023-04-23T08:14:09;100230.09;;;13.29;94.93
31082;BME280;17737;52.586;13.284;2023-04-23T08:16:38;100229.13;;;13.36;94.61
31082;BME280;17737;52.586;13.284;2023-04-23T08:19:06;100225.19;;;13.45;95.07
31082;BME280;17737;52.586;13.284;2023-04-23T08:21:34;100226.50;;;13.56;94.64
31082;BME280;17737;52.586;13.284;2023-04-23T08:24:02;100221.94;;;13.56;94.47
31082;BME280;17737;52.586;13.284;2023-04-23T08:26:33;100226.09;;;13.59;94.45
31082;BME280;17737;52.586;13.284;2023-04-23T08:29:01;100221.41;;;13.74;93.92
31082;BME280;17737;52.586;13.284;2023-04-23T08:31:30;100225.41;;;13.84;93.20
31082;BME280;17737;52.586;13.284;2023-04-23T08:33:59;100224.34;;;13.79;92.83
31082;BME280;17737;52.586;13.284;2023-04-23T08:36:27;100226.25;;;13.85;92.96
31082;BME280;17737;52.586;13.284;2023-04-23T08:38:55;100231.88;;;13.90;92.90
31082;BME280;17737;52.586;13.284;2023-04-23T08:41:26;100226.72;;;14.01;92.83
31082;BME280;17737;52.586;13.284;2023-04-23T08:44:06;100227.16;;;14.11;91.96
31082;BME280;17737;52.586;13.284;2023-04-23T08:46:42;100227.81;;;14.13;91.93
31082;BME280;17737;52.586;13.284;2023-04-23T08:49:13;100233.03;;;14.15;91.86
31082;BME280;17737;52.586;13.284;2023-04-23T08:51:47;100232.63;;;14.18;91.06
31082;BME280;17737;52.586;13.284;2023-04-23T08:54:21;100231.47;;;13.86;91.04
31082;BME280;17737;52.586;13.284;2023-04-23T08:56:54;100237.81;;;13.66;92.17
31082;BME280;17737;52.586;13.284;2023-04-23T08:59:26;100235.25;;;13.51;92.79
31082;BME280;17737;52.586;13.284;2023-04-23T09:01:58;100236.88;;;13.46;93.08
31082;BME280;17737;52.586;13.284;2023-04-23T09:04:27;100236.03;;;13.45;93.74
31082;BME280;17737;52.586;13.284;2023-04-23T09:06:57;100246.25;;;13.43;94.07
31082;BME280;17737;52.586;13.284;2023-04-23T09:09:35;100248.50;;;13.40;94.49
31082;BME280;17737;52.586;13.284;2023-04-23T09:12:06;100242.22;;;13.33;94.50
31082;BME280;17737;52.586;13.284;2023-04-23T09:14:34;100252.22;;;13.39;94.59
31082;BME280;17737;52.586;13.284;2023-04-23T09:17:03;100253.16;;;13.24;94.30
31082;BME280;17737;52.586;13.284;2023-04-23T09:19:34;100251.63;;;13.09;94.60
31082;BME280;17737;52.586;13.284;2023-04-23T09:22:06;100252.44;;;13.09;94.94
31082;BME280;17737;52.586;13.284;2023-04-23T09:24:36;100255.34;;;12.87;93.44
31082;BME280;17737;52.586;13.284;2023-04-23T09:27:08;100268.53;;;12.96;94.03
31082;BME280;17737;52.586;13.284;2023-04-23T09:29:36;100275.44;;;12.99;93.89
31082;BME280;17737;52.586;13.284;2023-04-23T09:32:06;100272.13;;;12.82;93.64
31082;BME280;17737;52.586;13.284;2023-04-23T09:34:36;100284.13;;;12.73;93.11
31082;BME280;17737;52.586;13.284;2023-04-23T09:37:04;100280.78;;;12.71;92.59
31082;BME280;17737;52.586;13.284;2023-04-23T09:39:38;100282.50;;;12.79;92.66
31082;BME280;17737;52.586;13.284;2023-04-23T09:42:06;100282.84;;;12.69;92.31
31082;BME280;17737;52.586;13.284;2023-04-23T09:44:36;100279.59;;;12.80;92.28
31082;BME280;17737;52.586;13.284;2023-04-23T09:47:07;100285.91;;;12.87;91.96
31082;BME280;17737;52.586;13.284;2023-04-23T09:49:46;100287.44;;;12.75;91.93
31082;BME280;17737;52.586;13.284;2023-04-23T09:52:15;100287.34;;;12.83;91.97
31082;BME280;17737;52.586;13.284;2023-04-23T09:54:46;100281.19;;;12.96;92.66
31082;BME280;17737;52.586;13.284;2023-04-23T09:57:14;100286.03;;;13.00;91.91
31082;BME280;17737;52.586;13.284;2023-04-23T09:59:43;100287.84;;;12.93;91.67
31082;BME280;17737;52.586;13.284;2023-04-23T10:02:18;100285.41;;;12.77;91.64
31082;BME280;17737;52.586;13.284;2023-04-23T10:04:49;100281.69;;;12.78;91.84
31082;BME280;17737;52.586;13.284;2023-04-23T10:07:29;100287.16;;;12.85;91.22
31082;BME280;17737;52.586;13.284;2023-04-23T10:09:59;100293.66;;;12.90;91.09
31082;BME280;17737;52.586;13.284;2023-04-23T10:12:27;100295.84;;;13.01;90.96
31082;BME280;17737;52.586;13.284;2023-04-23T10:15:15;100304.56;;;13.24;90.11
31082;BME280;17737;52.586;13.284;2023-04-23T10:17:45;100293.47;;;13.41;88.21
31082;BME280;17737;52.586;13.284;2023-04-23T10:20:15;100308.50;;;13.22;86.61
31082;BME280;17737;52.586;13.284;2023-04-23T10:22:43;100305.72;;;13.71;86.10
31082;BME280;17737;52.586;13.284;2023-04-23T10:25:14;100302.88;;;13.79;84.24
31082;BME280;17737;52.586;13.284;2023-04-23T10:27:43;100299.50;;;13.70;83.30
31082;BME280;17737;52.586;13.284;2023-04-23T10:30:20;100304.75;;;13.78;82.75
31082;BME280;17737;52.586;13.284;2023-04-23T10:32:49;100304.06;;;13.70;82.40
31082;BME280;17737;52.586;13.284;2023-04-23T10:35:17;100310.88;;;13.93;82.40
31082;BME280;17737;52.586;13.284;2023-04-23T10:37:46;100298.56;;;14.31;81.41
31082;BME280;17737;52.586;13.284;2023-04-23T10:40:22;100295.25;;;14.43;79.59
31082;BME280;17737;52.586;13.284;2023-04-23T10:42:56;100297.59;;;14.52;78.68
31082;BME280;17737;52.586;13.284;2023-04-23T10:45:29;100298.06;;;14.75;77.92
31082;BME280;17737;52.586;13.284;2023-04-23T10:47:58;100291.13;;;14.53;78.26
31082;BME280;17737;52.586;13.284;2023-04-23T10:50:27;100301.00;;;14.87;76.79
31082;BME280;17737;52.586;13.284;2023-04-23T10:52:56;100297.47;;;14.93;76.72
31082;BME280;17737;52.586;13.284;2023-04-23T10:55:27;100301.19;;;14.66;76.61
31082;BME280;17737;52.586;13.284;2023-04-23T10:58:00;100302.97;;;14.46;77.14
31082;BME280;17737;52.586;13.284;2023-04-23T11:00:42;100308.03;;;14.49;76.94
31082;BME280;17737;52.586;13.284;2023-04-23T11:03:30;100307.66;;;14.17;77.87
31082;BME280;17737;52.586;13.284;2023-04-23T11:06:02;100312.59;;;14.01;78.77
31082;BME280;17737;52.586;13.284;2023-04-23T11:08:33;100315.56;;;14.19;79.06
31082;BME280;17737;52.586;13.284;2023-04-23T11:11:07;100312.63;;;14.14;79.28
31082;BME280;17737;52.586;13.284;2023-04-23T11:13:49;100305.22;;;14.29;79.63
31082;BME280;17737;52.586;13.284;2023-04-23T11:16:21;100307.53;;;14.32;80.20
31082;BME280;17737;52.586;13.284;2023-04-23T11:18:58;100303.06;;;14.65;79.85
31082;BME280;17737;52.586;13.284;2023-04-23T11:21:57;100304.03;;;14.38;80.19
31082;BME280;17737;52.586;13.284;2023-04-23T11:24:28;100296.38;;;14.14;81.02
31082;BME280;17737;52.586;13.284;2023-04-23T11:26:59;100300.22;;;14.26;82.89
31082;BME280;17737;52.586;13.284;2023-04-23T11:29:28;100302.63;;;14.08;82.80
31082;BME280;17737;52.586;13.284;2023-04-23T11:31:56;100298.88;;;14.09;84.04
31082;BME280;17737;52.586;13.284;2023-04-23T11:34:29;100304.97;;;14.24;82.70
31082;BME280;17737;52.586;13.284;2023-04-23T11:36:58;100308.66;;;14.57;82.19
31082;BME280;17737;52.586;13.284;2023-04-23T11:39:28;100317.44;;;14.66;81.42
31082;BME280;17737;52.586;13.284;2023-04-23T11:41:58;100311.03;;;14.99;80.02
31082;BME280;17737;52.586;13.284;2023-04-23T11:44:28;100311.69;;;15.47;78.15
31082;BME280;17737;52.586;13.284;2023-04-23T11:46:59;100324.78;;;15.89;76.54
31082;BME280;17737;52.586;13.284;2023-04-23T11:49:28;100310.28;;;16.15;75.66
31082;BME280;17737;52.586;13.284;2023-04-23T11:51:58;100303.69;;;15.85;73.60
31082;BME280;17737;52.586;13.284;2023-04-23T11:54:27;100309.06;;;16.04;74.15
31082;BME280;17737;52.586;13.284;2023-04-23T11:56:56;100307.69;;;16.39;73.40
31082;BME280;17737;52.586;13.284;2023-04-23T11:59:26;100304.38;;;16.75;70.74
31082;BME280;17737;52.586;13.284;2023-04-23T12:01:56;100303.59;;;16.68;70.33
31082;BME280;17737;52.586;13.284;2023-04-23T12:04:27;100303.72;;;16.35;70.56
31082;BME280;17737;52.586;13.284;2023-04-23T12:06:56;100301.78;;;15.98;71.33
31082;BME280;17737;52.586;13.284;2023-04-23T12:09:27;100306.03;;;16.32;71.04
31082;BME280;17737;52.586;13.284;2023-04-23T12:11:56;100307.91;;;16.82;69.86
31082;BME280;17737;52.586;13.284;2023-04-23T12:14:27;100307.69;;;16.77;69.75
31082;BME280;17737;52.586;13.284;2023-04-23T12:16:57;100310.84;;;16.74;68.27
31082;BME280;17737;52.586;13.284;2023-04-23T12:19:35;100314.09;;;16.96;68.20
31082;BME280;17737;52.586;13.284;2023-04-23T12:22:03;100314.72;;;16.91;68.09
31082;BME280;17737;52.586;13.284;2023-04-23T12:24:45;100317.84;;;16.95;67.82
31082;BME280;17737;52.586;13.284;2023-04-23T12:27:15;100321.88;;;16.86;66.96
31082;BME280;17737;52.586;13.284;2023-04-23T12:29:47;100314.94;;;16.90;66.34
31082;BME280;17737;52.586;13.284;2023-04-23T12:32:16;100317.53;;;16.78;67.08
31082;BME280;17737;52.586;13.284;2023-04-23T12:34:52;100313.19;;;17.02;66.61
31082;BME280;17737;52.586;13.284;2023-04-23T12:37:23;100321.44;;;16.89;66.12
31082;BME280;17737;52.586;13.284;2023-04-23T12:39:53;100319.09;;;17.23;64.86
31082;BME280;17737;52.586;13.284;2023-04-23T12:42:22;100311.94;;;17.29;64.54
31082;BME280;17737;52.586;13.284;2023-04-23T12:44:52;100308.88;;;17.19;63.78
31082;BME280;17737;52.586;13.284;2023-04-23T12:47:21;100309.72;;;17.19;62.77
31082;BME280;17737;52.586;13.284;2023-04-23T12:49:49;100312.50;;;16.82;62.90
31082;BME280;17737;52.586;13.284;2023-04-23T12:52:20;100312.59;;;16.62;63.26
31082;BME280;17737;52.586;13.284;2023-04-23T12:54:49;100301.91;;;16.67;64.26
31082;BME280;17737;52.586;13.284;2023-04-23T12:57:21;100304.69;;;17.16;62.61